EFSI/SJY METAR and TAF weather

Enter ICAO airport designator
Station Type Date Time Source
EFSI METAR 2021/05/15 23:50 UTC NOAA

EFSI 152350Z AUTO 27003KT 2800 BR BKN001 OVC003 ///// Q////


Station Type Date Time Source
EFSI Decoded METAR 2021/05/15 23:50 UTC NOAA

Seinajoki-Ilmajok, Finland (EFSI) 62-41-37N 022-49-55E
May 15, 2021 - 07:50 PM EDT / 2021.05.15 2350 UTC
Wind: from the W (270 degrees) at 3 MPH (3 KT):0
Visibility: 1 mile(s):0
Sky conditions: overcast
Weather: mist
ob: EFSI 152350Z AUTO 27003KT 2800 BR BKN001 OVC003 ///// Q////
cycle: 0

Station Type Date Time Source
EFSI TAF 2012/03/06 09:42 UTC NOAA

TAF EFSI 060830Z 0609/0621 12003KT CAVOK

Example: see airport list